createdAt,value
2018-04-19T00:01:54.922Z,13.70
2018-04-19T00:04:22.379Z,13.50
2018-04-19T00:06:49.831Z,13.60
2018-04-19T00:09:17.271Z,13.50
2018-04-19T00:11:44.722Z,13.60
2018-04-19T00:14:12.164Z,13.30
2018-04-19T00:16:40.391Z,13.00
2018-04-19T00:19:07.822Z,13.00
2018-04-19T00:21:35.263Z,13.00
2018-04-19T00:24:02.722Z,13.00
2018-04-19T00:26:30.179Z,13.20
2018-04-19T00:28:57.641Z,12.90
2018-04-19T00:31:25.079Z,12.80
2018-04-19T00:33:53.299Z,12.70
2018-04-19T00:36:20.734Z,12.80
2018-04-19T00:38:48.189Z,12.80
2018-04-19T00:41:15.625Z,12.40
2018-04-19T00:43:43.837Z,12.50
2018-04-19T00:46:11.277Z,12.50
2018-04-19T00:48:38.744Z,12.30
2018-04-19T00:51:06.205Z,12.30
2018-04-19T00:53:33.663Z,12.30
2018-04-19T00:56:01.123Z,12.30
2018-04-19T00:58:28.568Z,12.20
2018-04-19T01:00:56.022Z,12.40
2018-04-19T01:03:24.218Z,12.20
2018-04-19T01:05:51.668Z,12.20
2018-04-19T01:08:19.117Z,12.40
2018-04-19T01:10:46.561Z,12.60
2018-04-19T01:13:14.051Z,12.60
2018-04-19T01:15:41.502Z,12.30
2018-04-19T01:18:08.956Z,12.10
2018-04-19T01:20:36.399Z,12.40
2018-04-19T01:23:03.867Z,12.00
2018-04-19T01:25:31.307Z,11.70
2018-04-19T01:27:58.758Z,11.60
2018-04-19T01:30:26.962Z,11.60
2018-04-19T01:32:54.415Z,11.60
2018-04-19T01:35:33.695Z,11.50
2018-04-19T01:38:01.149Z,11.50
2018-04-19T01:40:28.584Z,11.90
2018-04-19T01:42:56.046Z,11.60
2018-04-19T01:45:23.485Z,11.60
2018-04-19T01:47:50.933Z,11.40
2018-04-19T01:50:19.134Z,12.00
2018-04-19T01:52:46.591Z,12.00
2018-04-19T01:55:14.029Z,12.80
2018-04-19T01:57:41.487Z,12.60
2018-04-19T02:00:08.968Z,12.00
2018-04-19T02:02:36.398Z,11.90
2018-04-19T02:05:03.857Z,11.50
2018-04-19T02:07:37.263Z,11.40
2018-04-19T02:10:04.704Z,11.60
2018-04-19T02:12:32.154Z,11.30
2018-04-19T02:14:59.594Z,10.90
2018-04-19T02:17:27.803Z,10.70
2018-04-19T02:19:55.260Z,10.70
2018-04-19T02:22:22.711Z,10.70
2018-04-19T02:24:50.176Z,10.80
2018-04-19T02:27:17.622Z,10.80
2018-04-19T02:29:45.082Z,10.80
2018-04-19T02:32:12.530Z,10.80
2018-04-19T02:34:39.990Z,11.00
2018-04-19T02:37:07.430Z,10.90
2018-04-19T02:39:34.962Z,11.10
2018-04-19T02:42:02.411Z,11.60
2018-04-19T02:44:29.883Z,11.70
2018-04-19T02:46:58.103Z,11.60
2018-04-19T02:49:25.563Z,11.60
2018-04-19T02:51:53.002Z,11.70
2018-04-19T02:54:20.475Z,11.70
2018-04-19T02:56:48.700Z,11.80
2018-04-19T02:59:16.159Z,11.80
2018-04-19T03:01:44.379Z,11.90
2018-04-19T03:04:12.626Z,12.00
2018-04-19T03:06:40.847Z,12.00
2018-04-19T03:09:08.327Z,12.00
2018-04-19T03:11:35.783Z,12.00
2018-04-19T03:14:03.239Z,12.00
2018-04-19T03:16:30.699Z,12.00
2018-04-19T03:18:58.185Z,11.90
2018-04-19T03:21:26.390Z,11.90
2018-04-19T03:23:53.863Z,11.90
2018-04-19T03:26:21.306Z,11.90
2018-04-19T03:28:48.798Z,11.90
2018-04-19T03:31:16.234Z,11.80
2018-04-19T03:33:43.702Z,11.80
2018-04-19T03:36:11.378Z,11.70
2018-04-19T03:38:38.835Z,11.70
2018-04-19T03:41:06.300Z,11.60
2018-04-19T03:43:33.744Z,11.70
2018-04-19T03:46:01.210Z,11.70
2018-04-19T03:48:28.669Z,11.60
2018-04-19T03:50:56.118Z,11.70
2018-04-19T03:53:23.578Z,11.70
2018-04-19T03:55:51.029Z,11.70
2018-04-19T03:58:18.486Z,11.60
2018-04-19T04:00:46.670Z,11.80
2018-04-19T04:03:14.122Z,11.80
2018-04-19T04:05:41.582Z,11.90
2018-04-19T04:08:09.037Z,11.90
2018-04-19T04:10:37.295Z,11.90
2018-04-19T04:13:04.760Z,11.90
2018-04-19T04:15:32.210Z,11.90
2018-04-19T04:21:14.192Z,11.90
2018-04-19T04:23:51.486Z,12.00
2018-04-19T04:26:18.953Z,12.00
2018-04-19T04:28:46.402Z,12.00
2018-04-19T04:31:13.925Z,12.10
2018-04-19T04:33:41.307Z,12.10
2018-04-19T04:36:08.757Z,12.00
2018-04-19T04:38:36.969Z,11.60
2018-04-19T04:41:04.442Z,11.60
2018-04-19T04:43:31.910Z,11.20
2018-04-19T04:45:59.379Z,11.00
2018-04-19T04:48:26.846Z,10.90
2018-04-19T04:50:54.302Z,10.80
2018-04-19T04:53:21.773Z,11.00
2018-04-19T04:55:49.203Z,11.20
2018-04-19T04:58:16.662Z,11.10
2018-04-19T05:00:44.118Z,11.10
2018-04-19T05:03:11.593Z,11.20
2018-04-19T05:05:39.864Z,11.30
2018-04-19T05:08:07.290Z,11.40
2018-04-19T05:10:34.747Z,11.50
2018-04-19T05:13:02.206Z,11.60
2018-04-19T05:15:29.659Z,11.70
2018-04-19T05:17:57.111Z,11.60
2018-04-19T05:20:24.625Z,11.70
2018-04-19T05:22:52.091Z,11.90
2018-04-19T05:25:19.535Z,12.20
2018-04-19T05:27:47.770Z,12.60
2018-04-19T05:30:15.215Z,12.50
2018-04-19T05:32:42.682Z,12.40
2018-04-19T05:35:10.159Z,12.70
2018-04-19T05:37:37.602Z,12.90
2018-04-19T05:40:05.052Z,13.00
2018-04-19T05:42:32.575Z,13.20
2018-04-19T05:45:00.026Z,13.30
2018-04-19T05:47:27.493Z,13.60
2018-04-19T05:49:54.935Z,13.80
2018-04-19T05:52:22.395Z,14.10
2018-04-19T05:54:49.845Z,14.30
2018-04-19T05:57:17.307Z,14.50
2018-04-19T05:59:44.745Z,14.60
2018-04-19T06:02:12.970Z,15.20
2018-04-19T06:04:40.401Z,15.20
2018-04-19T06:07:07.853Z,15.50
2018-04-19T06:09:35.302Z,16.00
2018-04-19T06:12:03.526Z,16.90
2018-04-19T06:14:30.983Z,16.90
2018-04-19T06:16:58.441Z,17.70
2018-04-19T06:19:25.903Z,18.30
2018-04-19T06:21:53.361Z,18.00
2018-04-19T06:24:20.814Z,17.90
2018-04-19T06:26:48.278Z,17.60
2018-04-19T06:29:15.721Z,17.10
2018-04-19T06:31:43.178Z,17.20
2018-04-19T06:34:10.645Z,17.40
2018-04-19T06:36:38.146Z,17.60
2018-04-19T06:39:06.380Z,18.00
2018-04-19T06:41:33.935Z,18.00
2018-04-19T06:44:01.338Z,18.70
2018-04-19T06:46:29.566Z,19.30
2018-04-19T06:48:57.018Z,19.30
2018-04-19T06:51:24.469Z,19.40
2018-04-19T06:53:51.906Z,19.40
2018-04-19T06:56:19.392Z,19.50
2018-04-19T06:58:46.833Z,19.70
2018-04-19T07:01:14.282Z,20.00
2018-04-19T07:03:41.717Z,19.70
2018-04-19T07:06:09.182Z,19.90
2018-04-19T07:08:36.638Z,20.00
2018-04-19T07:11:04.101Z,20.30
2018-04-19T07:13:31.553Z,20.60
2018-04-19T07:15:58.998Z,20.60
2018-04-19T07:18:27.216Z,21.00
2018-04-19T07:20:54.690Z,21.00
2018-04-19T07:23:22.181Z,21.20
2018-04-19T07:25:50.403Z,21.00
2018-04-19T07:28:17.856Z,21.00
2018-04-19T07:30:45.310Z,21.10
2018-04-19T07:33:12.767Z,21.40
2018-04-19T07:35:40.195Z,21.50
2018-04-19T07:38:07.655Z,21.70
2018-04-19T07:40:35.105Z,22.00
2018-04-19T07:43:03.326Z,22.20
2018-04-19T07:45:30.786Z,22.20
2018-04-19T07:47:58.241Z,22.50
2018-04-19T07:50:25.686Z,22.50
2018-04-19T07:52:53.157Z,22.50
2018-04-19T07:55:20.597Z,22.60
2018-04-19T07:57:48.058Z,23.20
2018-04-19T08:00:15.529Z,23.30
2018-04-19T08:02:42.978Z,23.50
2018-04-19T08:05:10.435Z,23.30
2018-04-19T08:07:37.902Z,23.50
2018-04-19T08:10:05.363Z,23.70
2018-04-19T08:12:32.827Z,23.70
2018-04-19T08:15:00.302Z,24.30
2018-04-19T08:17:27.756Z,24.30
2018-04-19T08:19:55.209Z,24.20
2018-04-19T08:22:22.665Z,24.50
2018-04-19T08:24:50.095Z,24.60
2018-04-19T08:27:17.579Z,24.80
2018-04-19T08:29:45.046Z,24.30
2018-04-19T08:32:12.502Z,24.40
2018-04-19T08:34:39.946Z,25.10
2018-04-19T08:37:07.431Z,25.30
2018-04-19T08:39:35.657Z,25.30
2018-04-19T08:42:03.127Z,25.20
2018-04-19T08:44:30.609Z,25.50
2018-04-19T08:46:58.038Z,25.60
2018-04-19T08:49:25.544Z,25.70
2018-04-19T08:51:52.961Z,25.30
2018-04-19T08:54:20.421Z,25.20
2018-04-19T08:56:47.862Z,25.50
2018-04-19T08:59:15.331Z,25.60
2018-04-19T09:01:42.774Z,25.90
2018-04-19T09:04:10.226Z,26.30
2018-04-19T09:06:37.674Z,26.20
2018-04-19T09:09:05.962Z,26.50
2018-04-19T09:11:33.425Z,26.60
2018-04-19T09:14:00.910Z,26.40
2018-04-19T09:16:28.355Z,26.50
2018-04-19T09:18:55.888Z,26.90
2018-04-19T09:21:23.352Z,27.40
2018-04-19T09:23:50.810Z,27.50
2018-04-19T09:26:18.263Z,27.20
2018-04-19T09:28:45.734Z,27.00
2018-04-19T09:31:13.273Z,27.00
2018-04-19T09:33:40.714Z,26.90
2018-04-19T09:36:08.162Z,26.90
2018-04-19T09:38:35.608Z,27.10
2018-04-19T09:41:03.837Z,27.30
2018-04-19T09:43:31.306Z,27.20
2018-04-19T09:45:58.766Z,27.20
2018-04-19T09:48:26.222Z,27.10
2018-04-19T09:50:53.678Z,27.30
2018-04-19T09:53:21.150Z,27.70
2018-04-19T09:55:48.610Z,27.90
2018-04-19T09:58:16.057Z,28.50
2018-04-19T10:00:45.440Z,28.00
2018-04-19T10:03:18.858Z,28.00
2018-04-19T10:05:47.089Z,27.80
2018-04-19T10:08:14.551Z,27.80
2018-04-19T10:10:42.006Z,28.00
2018-04-19T10:13:09.463Z,28.30
2018-04-19T10:15:36.909Z,28.20
2018-04-19T10:18:04.351Z,28.20
2018-04-19T10:20:32.586Z,28.50
2018-04-19T10:23:00.030Z,28.40
2018-04-19T10:25:27.514Z,28.80
2018-04-19T10:27:54.981Z,28.60
2018-04-19T10:30:22.451Z,28.70
2018-04-19T10:32:50.653Z,28.50
2018-04-19T10:35:18.113Z,28.40
2018-04-19T10:37:45.603Z,28.40
2018-04-19T10:40:13.075Z,28.20
2018-04-19T10:42:40.510Z,28.30
2018-04-19T10:45:07.965Z,28.60
2018-04-19T10:47:35.403Z,27.80
2018-04-19T10:50:02.879Z,28.30
2018-04-19T10:52:30.323Z,28.20
2018-04-19T10:54:57.782Z,28.20
2018-04-19T10:57:25.231Z,28.20
2018-04-19T10:59:52.684Z,28.70
2018-04-19T11:02:20.150Z,29.20
2018-04-19T11:04:47.599Z,29.70
2018-04-19T11:07:15.052Z,28.70
2018-04-19T11:09:42.555Z,28.90
2018-04-19T11:12:09.990Z,28.50
2018-04-19T11:14:46.359Z,28.60
2018-04-19T11:17:13.798Z,28.70
2018-04-19T11:19:41.254Z,29.40
2018-04-19T11:22:08.715Z,29.60
2018-04-19T11:24:36.171Z,29.20
2018-04-19T11:27:03.627Z,29.30
2018-04-19T11:29:34.881Z,29.40
2018-04-19T11:32:02.326Z,29.50
2018-04-19T11:34:29.781Z,29.50
2018-04-19T11:36:57.237Z,30.00
2018-04-19T11:39:24.695Z,29.50
2018-04-19T11:41:52.121Z,29.10
2018-04-19T11:44:19.565Z,29.50
2018-04-19T11:46:47.818Z,30.90
2018-04-19T11:49:16.018Z,30.80
2018-04-19T11:51:44.335Z,30.50
2018-04-19T11:54:11.864Z,30.40
2018-04-19T11:56:40.178Z,30.00
2018-04-19T11:59:07.680Z,30.00
2018-04-19T12:07:27.157Z,29.10
2018-04-19T12:09:54.646Z,30.70
2018-04-19T12:12:22.929Z,30.60
2018-04-19T12:14:51.169Z,30.80
2018-04-19T12:17:18.626Z,30.70
2018-04-19T12:19:46.093Z,30.60
2018-04-19T12:22:13.539Z,30.40
2018-04-19T12:24:41.000Z,30.30
2018-04-19T12:27:08.469Z,29.80
2018-04-19T12:29:35.931Z,30.40
2018-04-19T12:32:03.395Z,30.30
2018-04-19T12:34:30.850Z,29.60
2018-04-19T12:36:58.302Z,29.90
2018-04-19T12:39:25.754Z,30.60
2018-04-19T12:41:53.208Z,31.10
2018-04-19T12:44:20.648Z,29.90
2018-04-19T12:46:48.109Z,29.70
2018-04-19T12:49:15.593Z,29.50
2018-04-19T12:51:43.118Z,28.90
2018-04-19T12:54:10.595Z,29.30
2018-04-19T12:56:38.054Z,28.80
2018-04-19T12:59:05.512Z,29.30
2018-04-19T13:01:32.975Z,29.00
2018-04-19T13:04:00.441Z,28.90
2018-04-19T13:06:28.184Z,28.70
2018-04-19T13:08:55.610Z,28.10
2018-04-19T13:11:23.118Z,28.50
2018-04-19T13:13:50.568Z,28.40
2018-04-19T13:16:18.045Z,28.40
2018-04-19T13:18:45.493Z,28.60
2018-04-19T13:21:12.954Z,28.60
2018-04-19T13:23:40.401Z,28.30
2018-04-19T13:26:07.852Z,27.90
2018-04-19T13:28:35.314Z,27.80
2018-04-19T13:31:02.766Z,27.90
2018-04-19T13:33:30.290Z,27.80
2018-04-19T13:35:57.693Z,27.80
2018-04-19T13:38:25.175Z,27.90
2018-04-19T13:40:53.386Z,28.70
2018-04-19T13:43:20.844Z,28.60
2018-04-19T13:45:48.282Z,28.60
2018-04-19T13:48:15.763Z,28.70
2018-04-19T13:50:43.239Z,28.20
2018-04-19T13:53:10.696Z,28.20
2018-04-19T13:55:38.146Z,28.30
2018-04-19T13:58:05.627Z,28.40
2018-04-19T14:00:33.090Z,28.60
2018-04-19T14:03:00.540Z,28.20
2018-04-19T14:05:28.025Z,28.10
2018-04-19T14:07:56.254Z,27.80
2018-04-19T14:10:23.699Z,27.80
2018-04-19T14:12:51.150Z,27.90
2018-04-19T14:15:18.619Z,28.00
2018-04-19T14:17:46.090Z,27.90
2018-04-19T14:20:13.561Z,28.00
2018-04-19T14:22:41.025Z,27.70
2018-04-19T14:25:08.572Z,27.20
2018-04-19T14:27:36.013Z,27.40
2018-04-19T14:30:03.466Z,27.50
2018-04-19T14:32:30.949Z,27.50
2018-04-19T14:34:58.430Z,27.40
2018-04-19T14:37:26.666Z,27.60
2018-04-19T14:39:54.159Z,27.60
2018-04-19T14:42:22.340Z,27.50
2018-04-19T14:44:50.565Z,27.50
2018-04-19T14:47:18.171Z,27.40
2018-04-19T14:49:46.385Z,27.30
2018-04-19T14:52:14.595Z,27.40
2018-04-19T14:54:42.102Z,27.40
2018-04-19T14:57:09.560Z,27.20
2018-04-19T14:59:37.041Z,27.40
2018-04-19T15:02:04.497Z,27.30
2018-04-19T15:04:31.944Z,27.30
2018-04-19T15:06:59.436Z,27.10
2018-04-19T15:09:26.906Z,27.20
2018-04-19T15:11:54.351Z,27.40
2018-04-19T15:14:21.846Z,27.70
2018-04-19T15:16:50.055Z,27.40
2018-04-19T15:19:17.521Z,27.40
2018-04-19T15:21:44.952Z,27.20
2018-04-19T15:24:12.410Z,27.10
2018-04-19T15:26:39.856Z,27.30
2018-04-19T15:29:07.306Z,27.40
2018-04-19T15:31:35.543Z,27.30
2018-04-19T15:34:02.977Z,27.30
2018-04-19T15:36:30.422Z,27.20
2018-04-19T15:38:57.878Z,27.20
2018-04-19T15:41:25.337Z,27.20
2018-04-19T15:43:52.853Z,27.10
2018-04-19T15:46:20.250Z,27.10
2018-04-19T15:48:47.707Z,27.10
2018-04-19T15:51:15.151Z,27.00
2018-04-19T15:53:42.623Z,26.90
2018-04-19T15:56:10.061Z,26.60
2018-04-19T15:58:37.516Z,26.80
2018-04-19T16:01:05.716Z,26.80
2018-04-19T16:03:33.156Z,26.70
2018-04-19T16:06:00.600Z,26.70
2018-04-19T16:08:28.053Z,26.40
2018-04-19T16:10:56.269Z,26.60
2018-04-19T16:13:23.733Z,26.60
2018-04-19T16:15:51.179Z,26.50
2018-04-19T16:18:18.621Z,26.50
2018-04-19T16:20:46.079Z,26.40
2018-04-19T16:23:13.526Z,26.40
2018-04-19T16:25:41.726Z,26.50
2018-04-19T16:28:09.162Z,26.60
2018-04-19T16:30:36.632Z,26.50
2018-04-19T16:33:04.075Z,26.60
2018-04-19T16:35:31.555Z,26.40
2018-04-19T16:37:58.990Z,26.20
2018-04-19T16:40:26.464Z,26.30
2018-04-19T16:42:53.923Z,26.10
2018-04-19T16:45:21.379Z,26.10
2018-04-19T16:47:48.812Z,26.20
2018-04-19T16:50:16.342Z,26.20
2018-04-19T16:52:43.729Z,26.20
2018-04-19T16:55:11.182Z,26.10
2018-04-19T16:57:38.622Z,26.10
2018-04-19T17:00:06.834Z,25.90
2018-04-19T17:02:34.273Z,25.90
2018-04-19T17:05:01.757Z,25.90
2018-04-19T17:07:29.227Z,25.90
2018-04-19T17:09:56.762Z,25.80
2018-04-19T17:12:24.226Z,25.80
2018-04-19T17:14:51.697Z,25.80
2018-04-19T17:17:19.203Z,25.80
2018-04-19T17:19:47.429Z,25.80
2018-04-19T17:22:14.914Z,25.70
2018-04-19T17:24:42.359Z,25.60
2018-04-19T17:27:09.826Z,25.70
2018-04-19T17:29:37.283Z,25.70
2018-04-19T17:32:04.761Z,25.60
2018-04-19T17:34:32.271Z,25.60
2018-04-19T17:37:00.458Z,25.60
2018-04-19T17:39:27.949Z,25.60
2018-04-19T17:41:55.431Z,25.50
2018-04-19T17:44:22.907Z,25.50
2018-04-19T17:46:50.382Z,25.30
2018-04-19T17:49:17.873Z,25.00
2018-04-19T17:51:45.346Z,24.70
2018-04-19T17:54:13.572Z,24.30
2018-04-19T17:56:41.067Z,24.20
2018-04-19T17:59:08.530Z,24.40
2018-04-19T18:01:36.768Z,24.10
2018-04-19T18:04:04.240Z,24.10
2018-04-19T18:06:31.698Z,23.80
2018-04-19T18:08:59.181Z,23.50
2018-04-19T18:11:27.416Z,23.40
2018-04-19T18:13:54.911Z,23.30
2018-04-19T18:16:23.189Z,23.10
2018-04-19T18:18:50.652Z,23.10
2018-04-19T18:21:19.133Z,23.10
2018-04-19T18:23:47.405Z,23.10
2018-04-19T18:26:14.903Z,23.10
2018-04-19T18:28:42.365Z,23.20
2018-04-19T18:31:09.850Z,23.20
2018-04-19T18:33:37.312Z,23.20
2018-04-19T18:36:04.769Z,22.90
2018-04-19T18:38:32.278Z,22.90
2018-04-19T18:40:59.748Z,22.90
2018-04-19T18:43:27.226Z,22.80
2018-04-19T18:45:54.677Z,22.70
2018-04-19T18:48:22.159Z,22.60
2018-04-19T18:50:49.642Z,22.60
2018-04-19T18:53:17.914Z,22.40
2018-04-19T18:55:46.146Z,22.40
2018-04-19T18:58:13.661Z,22.40
2018-04-19T19:00:41.123Z,22.40
2018-04-19T19:03:08.617Z,22.30
2018-04-19T19:05:36.068Z,22.10
2018-04-19T19:08:03.548Z,22.00
2018-04-19T19:10:31.015Z,22.00
2018-04-19T19:12:58.506Z,21.90
2018-04-19T19:18:52.359Z,21.30
2018-04-19T19:21:19.801Z,20.90
2018-04-19T19:23:47.255Z,20.80
2018-04-19T19:26:14.702Z,20.70
2018-04-19T19:28:42.146Z,20.40
2018-04-19T19:31:09.601Z,20.40
2018-04-19T19:33:37.066Z,20.20
2018-04-19T19:36:04.516Z,20.20
2018-04-19T19:38:31.957Z,20.10
2018-04-19T19:41:00.171Z,19.90
2018-04-19T19:43:27.621Z,19.80
2018-04-19T19:45:55.062Z,19.80
2018-04-19T19:48:22.517Z,19.70
2018-04-19T19:50:49.951Z,19.60
2018-04-19T19:53:18.168Z,19.30
2018-04-19T19:55:45.605Z,19.30
2018-04-19T19:58:13.064Z,19.20
2018-04-19T20:00:40.513Z,19.10
2018-04-19T20:03:07.978Z,19.00
2018-04-19T20:05:35.426Z,18.90
2018-04-19T20:08:02.885Z,18.80
2018-04-19T20:10:31.085Z,18.70
2018-04-19T20:12:58.541Z,18.60
2018-04-19T20:15:25.982Z,18.50
2018-04-19T20:17:53.430Z,18.50
2018-04-19T20:20:21.630Z,18.40
2018-04-19T20:22:49.104Z,18.30
2018-04-19T20:25:16.573Z,18.30
2018-04-19T20:27:44.031Z,18.30
2018-04-19T20:30:11.465Z,18.20
2018-04-19T20:32:38.945Z,18.20
2018-04-19T20:35:06.407Z,18.10
2018-04-19T20:37:33.878Z,17.90
2018-04-19T20:40:01.335Z,17.70
2018-04-19T20:42:28.794Z,17.80
2018-04-19T20:44:56.248Z,17.90
2018-04-19T20:47:23.724Z,18.00
2018-04-19T20:49:51.938Z,17.90
2018-04-19T20:52:19.377Z,17.80
2018-04-19T20:54:46.829Z,17.80
2018-04-19T20:57:14.278Z,17.50
2018-04-19T20:59:42.507Z,17.40
2018-04-19T21:02:10.061Z,17.40
2018-04-19T21:04:37.415Z,17.30
2018-04-19T21:07:04.872Z,17.40
2018-04-19T21:09:32.330Z,17.50
2018-04-19T21:11:59.795Z,17.40
2018-04-19T21:14:27.314Z,17.40
2018-04-19T21:16:55.522Z,17.30
2018-04-19T21:19:23.033Z,17.20
2018-04-19T21:21:50.483Z,17.00
2018-04-19T21:24:17.978Z,16.90
2018-04-19T21:26:45.445Z,16.70
2018-04-19T21:29:12.954Z,16.50
2018-04-19T21:31:41.179Z,16.60
2018-04-19T21:34:08.675Z,16.50
2018-04-19T21:36:36.137Z,16.60
2018-04-19T21:39:04.375Z,17.00
2018-04-19T21:41:31.859Z,16.90
2018-04-19T21:43:59.340Z,17.10
2018-04-19T21:46:27.584Z,17.30
2018-04-19T21:48:55.082Z,17.20
2018-04-19T21:51:22.557Z,17.30
2018-04-19T21:53:50.040Z,17.20
2018-04-19T21:56:17.508Z,17.10
2018-04-19T21:58:45.003Z,17.10
2018-04-19T22:01:13.279Z,16.70
2018-04-19T22:03:41.522Z,16.60
2018-04-19T22:06:08.992Z,16.50
2018-04-19T22:08:36.470Z,16.60
2018-04-19T22:11:03.949Z,16.40
2018-04-19T22:13:31.406Z,16.50
2018-04-19T22:15:58.883Z,16.70
2018-04-19T22:18:26.348Z,16.70
2018-04-19T22:20:53.822Z,16.70
2018-04-19T22:23:21.325Z,16.60
2018-04-19T22:25:49.578Z,16.60
2018-04-19T22:28:17.105Z,16.50
2018-04-19T22:30:44.579Z,16.50
2018-04-19T22:33:12.061Z,16.70
2018-04-19T22:35:40.298Z,16.60
2018-04-19T22:38:07.755Z,16.70
2018-04-19T22:40:35.246Z,16.60
2018-04-19T22:43:02.703Z,16.60
2018-04-19T22:45:30.186Z,16.60
2018-04-19T22:47:57.667Z,16.60
2018-04-19T22:50:25.171Z,16.50
2018-04-19T22:52:52.640Z,16.40
2018-04-19T22:55:20.888Z,16.60
2018-04-19T22:57:48.365Z,16.50
2018-04-19T23:00:16.721Z,16.40
2018-04-19T23:02:44.211Z,16.30
2018-04-19T23:05:13.384Z,16.10
2018-04-19T23:07:40.850Z,16.10
2018-04-19T23:10:08.314Z,16.30
2018-04-19T23:12:35.788Z,16.40
2018-04-19T23:15:04.049Z,16.50
2018-04-19T23:17:31.552Z,16.50
2018-04-19T23:19:59.770Z,16.50
2018-04-19T23:22:34.002Z,16.50
2018-04-19T23:25:02.248Z,16.40
2018-04-19T23:27:29.731Z,16.40
2018-04-19T23:29:57.205Z,16.30
2018-04-19T23:32:25.467Z,15.80
2018-04-19T23:34:52.939Z,15.80
2018-04-19T23:37:21.186Z,15.60
2018-04-19T23:39:48.727Z,15.60
2018-04-19T23:42:16.136Z,15.40
2018-04-19T23:44:44.358Z,15.30
2018-04-19T23:47:11.821Z,15.20
2018-04-19T23:49:39.277Z,15.30
2018-04-19T23:52:06.742Z,15.20
2018-04-19T23:54:34.193Z,15.20
2018-04-19T23:57:01.666Z,15.20
2018-04-19T23:59:29.121Z,15.10
